sensor_id;sensor_type;location;lat;lon;timestamp;temperature;humidity
8662;DHT22;29684;47.722;9.388;2023-12-28T00:01:26;0.70;99.90
8662;DHT22;29684;47.722;9.388;2023-12-28T00:04:10;0.30;99.90
8662;DHT22;29684;47.722;9.388;2023-12-28T00:06:54;0.20;99.90
8662;DHT22;29684;47.722;9.388;2023-12-28T00:09:38;0.20;99.90
8662;DHT22;29684;47.722;9.388;2023-12-28T00:12:22;0.20;99.90
8662;DHT22;29684;47.722;9.388;2023-12-28T00:15:07;0.40;99.90
8662;DHT22;29684;47.722;9.388;2023-12-28T00:17:51;0.40;99.90
8662;DHT22;29684;47.722;9.388;2023-12-28T00:20:36;0.40;99.90
8662;DHT22;29684;47.722;9.388;2023-12-28T00:23:20;0.30;99.90
8662;DHT22;29684;47.722;9.388;2023-12-28T00:26:04;0.20;99.90
8662;DHT22;29684;47.722;9.388;2023-12-28T00:28:48;0.20;99.90
8662;DHT22;29684;47.722;9.388;2023-12-28T00:31:32;0.20;99.90
8662;DHT22;29684;47.722;9.388;2023-12-28T00:34:21;0.20;99.90
8662;DHT22;29684;47.722;9.388;2023-12-28T00:37:05;0.10;99.90
8662;DHT22;29684;47.722;9.388;2023-12-28T00:39:50;0.00;99.90
8662;DHT22;29684;47.722;9.388;2023-12-28T00:42:34;-0.10;99.90
8662;DHT22;29684;47.722;9.388;2023-12-28T00:45:19;-0.10;99.90
8662;DHT22;29684;47.722;9.388;2023-12-28T00:48:03;0.00;99.90
8662;DHT22;29684;47.722;9.388;2023-12-28T00:50:47;-0.10;99.90
8662;DHT22;29684;47.722;9.388;2023-12-28T00:53:31;-0.30;99.90
8662;DHT22;29684;47.722;9.388;2023-12-28T00:56:15;-0.60;99.90
8662;DHT22;29684;47.722;9.388;2023-12-28T00:59:00;-0.70;99.90
8662;DHT22;29684;47.722;9.388;2023-12-28T01:01:46;-0.90;99.90
8662;DHT22;29684;47.722;9.388;2023-12-28T01:04:30;-1.00;99.90
8662;DHT22;29684;47.722;9.388;2023-12-28T01:07:14;-1.10;99.90
8662;DHT22;29684;47.722;9.388;2023-12-28T01:09:58;-1.10;99.90
8662;DHT22;29684;47.722;9.388;2023-12-28T01:12:45;-1.00;99.90
8662;DHT22;29684;47.722;9.388;2023-12-28T01:15:29;-1.00;99.90
8662;DHT22;29684;47.722;9.388;2023-12-28T01:18:19;-1.00;99.90
8662;DHT22;29684;47.722;9.388;2023-12-28T01:21:06;-0.60;99.90
8662;DHT22;29684;47.722;9.388;2023-12-28T01:23:51;-0.50;99.90
8662;DHT22;29684;47.722;9.388;2023-12-28T01:26:36;-0.60;99.90
8662;DHT22;29684;47.722;9.388;2023-12-28T01:29:20;-0.60;99.90
8662;DHT22;29684;47.722;9.388;2023-12-28T01:32:07;-0.70;99.90
8662;DHT22;29684;47.722;9.388;2023-12-28T01:34:51;-0.70;99.90
8662;DHT22;29684;47.722;9.388;2023-12-28T01:37:35;-0.70;99.90
8662;DHT22;29684;47.722;9.388;2023-12-28T01:40:20;-0.70;99.90
8662;DHT22;29684;47.722;9.388;2023-12-28T01:43:04;-0.60;99.90
8662;DHT22;29684;47.722;9.388;2023-12-28T01:45:48;-0.50;99.90
8662;DHT22;29684;47.722;9.388;2023-12-28T01:48:33;-0.50;99.90
8662;DHT22;29684;47.722;9.388;2023-12-28T01:51:19;-0.50;99.90
8662;DHT22;29684;47.722;9.388;2023-12-28T01:54:04;-0.40;99.90
8662;DHT22;29684;47.722;9.388;2023-12-28T01:56:49;-0.40;99.90
8662;DHT22;29684;47.722;9.388;2023-12-28T01:59:34;-0.50;99.90
8662;DHT22;29684;47.722;9.388;2023-12-28T02:02:18;-0.40;99.90
8662;DHT22;29684;47.722;9.388;2023-12-28T02:05:02;-0.40;99.90
8662;DHT22;29684;47.722;9.388;2023-12-28T02:07:47;-0.40;99.90
8662;DHT22;29684;47.722;9.388;2023-12-28T02:10:31;-0.40;99.90
8662;DHT22;29684;47.722;9.388;2023-12-28T02:13:15;-0.40;99.90
8662;DHT22;29684;47.722;9.388;2023-12-28T02:16:20;-0.40;99.90
8662;DHT22;29684;47.722;9.388;2023-12-28T02:19:17;-0.50;99.90
8662;DHT22;29684;47.722;9.388;2023-12-28T02:22:03;-0.50;99.90
8662;DHT22;29684;47.722;9.388;2023-12-28T02:27:50;-0.70;99.90
8662;DHT22;29684;47.722;9.388;2023-12-28T02:30:35;-0.70;99.90
8662;DHT22;29684;47.722;9.388;2023-12-28T02:36:09;-0.60;99.90
8662;DHT22;29684;47.722;9.388;2023-12-28T02:38:56;-0.60;99.90
8662;DHT22;29684;47.722;9.388;2023-12-28T02:41:44;-0.50;99.90
8662;DHT22;29684;47.722;9.388;2023-12-28T02:44:29;-0.50;99.90
8662;DHT22;29684;47.722;9.388;2023-12-28T02:47:15;-0.50;99.90
8662;DHT22;29684;47.722;9.388;2023-12-28T02:49:59;-0.50;99.90
8662;DHT22;29684;47.722;9.388;2023-12-28T02:52:44;-0.40;99.90
8662;DHT22;29684;47.722;9.388;2023-12-28T02:55:28;-0.40;99.90
8662;DHT22;29684;47.722;9.388;2023-12-28T02:58:14;-0.50;99.90
8662;DHT22;29684;47.722;9.388;2023-12-28T03:00:58;-0.60;99.90
8662;DHT22;29684;47.722;9.388;2023-12-28T03:03:43;-0.70;99.90
8662;DHT22;29684;47.722;9.388;2023-12-28T03:06:27;-0.70;99.90
8662;DHT22;29684;47.722;9.388;2023-12-28T03:09:11;-0.80;99.90
8662;DHT22;29684;47.722;9.388;2023-12-28T03:11:55;-0.60;99.90
8662;DHT22;29684;47.722;9.388;2023-12-28T03:14:41;-0.60;99.90
8662;DHT22;29684;47.722;9.388;2023-12-28T03:17:25;-0.80;99.90
8662;DHT22;29684;47.722;9.388;2023-12-28T03:20:10;-0.90;99.90
8662;DHT22;29684;47.722;9.388;2023-12-28T03:22:54;-0.90;99.90
8662;DHT22;29684;47.722;9.388;2023-12-28T03:25:38;-0.70;99.90
8662;DHT22;29684;47.722;9.388;2023-12-28T03:28:22;-0.50;99.90
8662;DHT22;29684;47.722;9.388;2023-12-28T03:31:06;-0.60;99.90
8662;DHT22;29684;47.722;9.388;2023-12-28T03:33:51;-0.70;99.90
8662;DHT22;29684;47.722;9.388;2023-12-28T03:36:35;-0.50;99.90
8662;DHT22;29684;47.722;9.388;2023-12-28T03:39:19;-0.80;99.90
8662;DHT22;29684;47.722;9.388;2023-12-28T03:42:03;-0.80;99.90
8662;DHT22;29684;47.722;9.388;2023-12-28T03:44:48;-0.80;99.90
8662;DHT22;29684;47.722;9.388;2023-12-28T03:47:32;-0.70;99.90
8662;DHT22;29684;47.722;9.388;2023-12-28T03:50:16;-0.70;99.90
8662;DHT22;29684;47.722;9.388;2023-12-28T03:52:59;-1.00;99.90
8662;DHT22;29684;47.722;9.388;2023-12-28T03:55:44;-1.10;99.90
8662;DHT22;29684;47.722;9.388;2023-12-28T03:58:28;-1.10;99.90
8662;DHT22;29684;47.722;9.388;2023-12-28T04:01:12;-1.20;99.90
8662;DHT22;29684;47.722;9.388;2023-12-28T04:03:56;-1.20;99.90
8662;DHT22;29684;47.722;9.388;2023-12-28T04:06:40;-1.30;99.90
8662;DHT22;29684;47.722;9.388;2023-12-28T04:09:27;-1.20;99.90
8662;DHT22;29684;47.722;9.388;2023-12-28T04:12:14;-1.10;99.90
8662;DHT22;29684;47.722;9.388;2023-12-28T04:14:58;-0.90;99.90
8662;DHT22;29684;47.722;9.388;2023-12-28T04:17:48;-0.90;99.90
8662;DHT22;29684;47.722;9.388;2023-12-28T04:20:32;-0.80;99.90
8662;DHT22;29684;47.722;9.388;2023-12-28T04:23:16;-0.80;99.90
8662;DHT22;29684;47.722;9.388;2023-12-28T04:26:01;-0.70;99.90
8662;DHT22;29684;47.722;9.388;2023-12-28T04:28:45;-0.70;99.90
8662;DHT22;29684;47.722;9.388;2023-12-28T04:31:29;-0.70;99.90
8662;DHT22;29684;47.722;9.388;2023-12-28T04:34:13;-0.70;99.90
8662;DHT22;29684;47.722;9.388;2023-12-28T04:36:57;-0.80;99.90
8662;DHT22;29684;47.722;9.388;2023-12-28T04:39:41;-1.00;99.90
8662;DHT22;29684;47.722;9.388;2023-12-28T04:42:25;-1.10;99.90
8662;DHT22;29684;47.722;9.388;2023-12-28T04:45:12;-1.10;99.90
8662;DHT22;29684;47.722;9.388;2023-12-28T04:47:56;-1.10;99.90
8662;DHT22;29684;47.722;9.388;2023-12-28T04:50:40;-0.80;99.90
8662;DHT22;29684;47.722;9.388;2023-12-28T04:53:24;-0.70;99.90
8662;DHT22;29684;47.722;9.388;2023-12-28T04:56:08;-1.00;99.90
8662;DHT22;29684;47.722;9.388;2023-12-28T04:58:52;-0.90;99.90
8662;DHT22;29684;47.722;9.388;2023-12-28T05:01:43;-1.10;99.90
8662;DHT22;29684;47.722;9.388;2023-12-28T05:04:30;-1.00;99.90
8662;DHT22;29684;47.722;9.388;2023-12-28T05:07:14;-1.00;99.90
8662;DHT22;29684;47.722;9.388;2023-12-28T05:09:58;-1.00;99.90
8662;DHT22;29684;47.722;9.388;2023-12-28T05:12:42;-1.00;99.90
8662;DHT22;29684;47.722;9.388;2023-12-28T05:15:26;-0.90;99.90
8662;DHT22;29684;47.722;9.388;2023-12-28T05:18:10;-0.70;99.90
8662;DHT22;29684;47.722;9.388;2023-12-28T05:20:55;-0.80;99.90
8662;DHT22;29684;47.722;9.388;2023-12-28T05:23:39;-0.90;99.90
8662;DHT22;29684;47.722;9.388;2023-12-28T05:26:26;-0.80;99.90
8662;DHT22;29684;47.722;9.388;2023-12-28T05:29:11;-0.80;99.90
8662;DHT22;29684;47.722;9.388;2023-12-28T05:31:55;-0.80;99.90
8662;DHT22;29684;47.722;9.388;2023-12-28T05:34:39;-0.80;99.90
8662;DHT22;29684;47.722;9.388;2023-12-28T05:37:23;-0.60;99.90
8662;DHT22;29684;47.722;9.388;2023-12-28T05:40:07;-0.80;99.90
8662;DHT22;29684;47.722;9.388;2023-12-28T05:42:59;-0.70;99.90
8662;DHT22;29684;47.722;9.388;2023-12-28T05:45:43;-0.90;99.90
8662;DHT22;29684;47.722;9.388;2023-12-28T05:48:28;-1.20;99.90
8662;DHT22;29684;47.722;9.388;2023-12-28T05:51:12;-1.10;99.90
8662;DHT22;29684;47.722;9.388;2023-12-28T05:53:56;-1.30;99.90
8662;DHT22;29684;47.722;9.388;2023-12-28T05:56:40;-1.10;99.90
8662;DHT22;29684;47.722;9.388;2023-12-28T05:59:25;-1.30;99.90
8662;DHT22;29684;47.722;9.388;2023-12-28T06:02:10;-1.30;99.90
8662;DHT22;29684;47.722;9.388;2023-12-28T06:04:54;-1.40;99.90
8662;DHT22;29684;47.722;9.388;2023-12-28T06:07:39;-1.40;99.90
8662;DHT22;29684;47.722;9.388;2023-12-28T06:10:23;-1.30;99.90
8662;DHT22;29684;47.722;9.388;2023-12-28T06:13:08;-1.20;99.90
8662;DHT22;29684;47.722;9.388;2023-12-28T06:15:52;-1.10;99.90
8662;DHT22;29684;47.722;9.388;2023-12-28T06:18:39;-1.00;99.90
8662;DHT22;29684;47.722;9.388;2023-12-28T06:21:23;-1.00;99.90
8662;DHT22;29684;47.722;9.388;2023-12-28T06:24:07;-1.20;99.90
8662;DHT22;29684;47.722;9.388;2023-12-28T06:26:51;-1.20;99.90
8662;DHT22;29684;47.722;9.388;2023-12-28T06:29:35;-1.40;99.90
8662;DHT22;29684;47.722;9.388;2023-12-28T06:32:19;-1.30;99.90
8662;DHT22;29684;47.722;9.388;2023-12-28T06:35:07;-1.60;99.90
8662;DHT22;29684;47.722;9.388;2023-12-28T06:37:51;-1.60;99.90
8662;DHT22;29684;47.722;9.388;2023-12-28T06:40:35;-1.70;99.90
8662;DHT22;29684;47.722;9.388;2023-12-28T06:43:22;-1.70;99.90
8662;DHT22;29684;47.722;9.388;2023-12-28T06:46:06;-1.40;99.90
8662;DHT22;29684;47.722;9.388;2023-12-28T06:48:50;-1.30;99.90
8662;DHT22;29684;47.722;9.388;2023-12-28T06:51:34;-1.30;99.90
8662;DHT22;29684;47.722;9.388;2023-12-28T06:54:19;-1.40;99.90
8662;DHT22;29684;47.722;9.388;2023-12-28T06:57:03;-1.40;99.90
8662;DHT22;29684;47.722;9.388;2023-12-28T06:59:47;-1.40;99.90
8662;DHT22;29684;47.722;9.388;2023-12-28T07:02:31;-1.40;99.90
8662;DHT22;29684;47.722;9.388;2023-12-28T07:05:16;-1.30;99.90
8662;DHT22;29684;47.722;9.388;2023-12-28T07:08:00;-1.30;99.90
8662;DHT22;29684;47.722;9.388;2023-12-28T07:10:44;-1.10;99.90
8662;DHT22;29684;47.722;9.388;2023-12-28T07:13:28;-1.00;99.90
8662;DHT22;29684;47.722;9.388;2023-12-28T07:16:13;-0.70;99.90
8662;DHT22;29684;47.722;9.388;2023-12-28T07:18:57;-0.90;99.90
8662;DHT22;29684;47.722;9.388;2023-12-28T07:21:42;-1.00;99.90
8662;DHT22;29684;47.722;9.388;2023-12-28T07:24:26;-0.80;99.90
8662;DHT22;29684;47.722;9.388;2023-12-28T07:27:10;-0.90;99.90
8662;DHT22;29684;47.722;9.388;2023-12-28T07:29:54;-1.20;99.90
8662;DHT22;29684;47.722;9.388;2023-12-28T07:32:38;-1.10;99.90
8662;DHT22;29684;47.722;9.388;2023-12-28T07:35:22;-1.10;99.90
8662;DHT22;29684;47.722;9.388;2023-12-28T07:38:06;-1.10;99.90
8662;DHT22;29684;47.722;9.388;2023-12-28T07:40:51;-1.30;99.90
8662;DHT22;29684;47.722;9.388;2023-12-28T07:43:37;-1.30;99.90
8662;DHT22;29684;47.722;9.388;2023-12-28T07:46:22;-1.30;99.90
8662;DHT22;29684;47.722;9.388;2023-12-28T07:49:06;-1.30;99.90
8662;DHT22;29684;47.722;9.388;2023-12-28T07:51:52;-1.40;99.90
8662;DHT22;29684;47.722;9.388;2023-12-28T07:54:36;-1.30;99.90
8662;DHT22;29684;47.722;9.388;2023-12-28T07:57:20;-1.10;99.90
8662;DHT22;29684;47.722;9.388;2023-12-28T08:00:05;-1.10;99.90
8662;DHT22;29684;47.722;9.388;2023-12-28T08:02:49;-0.90;99.90
8662;DHT22;29684;47.722;9.388;2023-12-28T08:05:33;-0.70;99.90
8662;DHT22;29684;47.722;9.388;2023-12-28T08:08:18;-0.50;99.90
8662;DHT22;29684;47.722;9.388;2023-12-28T08:11:02;-0.30;99.90
8662;DHT22;29684;47.722;9.388;2023-12-28T08:13:46;-0.20;99.90
8662;DHT22;29684;47.722;9.388;2023-12-28T08:16:31;-0.30;99.90
8662;DHT22;29684;47.722;9.388;2023-12-28T08:19:15;-0.20;99.90
8662;DHT22;29684;47.722;9.388;2023-12-28T08:21:59;0.10;99.90
8662;DHT22;29684;47.722;9.388;2023-12-28T08:24:43;0.30;99.90
8662;DHT22;29684;47.722;9.388;2023-12-28T08:27:28;0.50;99.90
8662;DHT22;29684;47.722;9.388;2023-12-28T08:30:13;0.70;99.90
8662;DHT22;29684;47.722;9.388;2023-12-28T08:32:57;0.90;99.90
8662;DHT22;29684;47.722;9.388;2023-12-28T08:35:42;1.20;99.90
8662;DHT22;29684;47.722;9.388;2023-12-28T08:38:28;1.30;99.90
8662;DHT22;29684;47.722;9.388;2023-12-28T08:41:20;1.40;99.90
8662;DHT22;29684;47.722;9.388;2023-12-28T08:44:04;1.50;99.90
8662;DHT22;29684;47.722;9.388;2023-12-28T08:46:49;1.70;99.90
8662;DHT22;29684;47.722;9.388;2023-12-28T08:49:33;2.00;99.90
8662;DHT22;29684;47.722;9.388;2023-12-28T08:52:17;2.20;99.90
8662;DHT22;29684;47.722;9.388;2023-12-28T08:55:04;2.50;99.90
8662;DHT22;29684;47.722;9.388;2023-12-28T08:57:48;2.50;99.90
8662;DHT22;29684;47.722;9.388;2023-12-28T09:00:32;2.70;99.90
8662;DHT22;29684;47.722;9.388;2023-12-28T09:03:16;2.80;99.90
8662;DHT22;29684;47.722;9.388;2023-12-28T09:06:00;2.90;99.90
8662;DHT22;29684;47.722;9.388;2023-12-28T09:08:46;3.10;99.90
8662;DHT22;29684;47.722;9.388;2023-12-28T09:11:31;3.20;99.90
8662;DHT22;29684;47.722;9.388;2023-12-28T09:14:15;3.30;99.90
8662;DHT22;29684;47.722;9.388;2023-12-28T09:16:59;3.60;99.90
8662;DHT22;29684;47.722;9.388;2023-12-28T09:19:43;3.60;99.90
8662;DHT22;29684;47.722;9.388;2023-12-28T09:22:27;3.70;99.90
8662;DHT22;29684;47.722;9.388;2023-12-28T09:25:11;3.80;99.90
8662;DHT22;29684;47.722;9.388;2023-12-28T09:27:56;3.90;99.90
8662;DHT22;29684;47.722;9.388;2023-12-28T09:30:40;3.70;99.90
8662;DHT22;29684;47.722;9.388;2023-12-28T09:33:24;3.20;99.90
8662;DHT22;29684;47.722;9.388;2023-12-28T09:36:09;3.10;99.90
8662;DHT22;29684;47.722;9.388;2023-12-28T09:38:57;3.00;99.90
8662;DHT22;29684;47.722;9.388;2023-12-28T09:41:43;2.90;99.90
8662;DHT22;29684;47.722;9.388;2023-12-28T09:44:31;2.50;99.90
8662;DHT22;29684;47.722;9.388;2023-12-28T09:47:18;2.20;99.90
8662;DHT22;29684;47.722;9.388;2023-12-28T09:50:02;2.10;99.90
8662;DHT22;29684;47.722;9.388;2023-12-28T09:52:47;2.20;99.90
8662;DHT22;29684;47.722;9.388;2023-12-28T09:55:31;2.60;99.90
8662;DHT22;29684;47.722;9.388;2023-12-28T09:58:17;2.40;99.90
8662;DHT22;29684;47.722;9.388;2023-12-28T10:01:02;2.20;99.90
8662;DHT22;29684;47.722;9.388;2023-12-28T10:03:47;2.80;99.90
8662;DHT22;29684;47.722;9.388;2023-12-28T10:06:31;3.10;99.90
8662;DHT22;29684;47.722;9.388;2023-12-28T10:09:15;3.10;99.90
8662;DHT22;29684;47.722;9.388;2023-12-28T10:12:00;3.30;99.90
8662;DHT22;29684;47.722;9.388;2023-12-28T10:14:46;3.80;99.90
8662;DHT22;29684;47.722;9.388;2023-12-28T10:17:34;3.50;99.90
8662;DHT22;29684;47.722;9.388;2023-12-28T10:20:19;3.20;99.90
8662;DHT22;29684;47.722;9.388;2023-12-28T10:23:04;3.00;99.90
8662;DHT22;29684;47.722;9.388;2023-12-28T10:25:50;2.70;99.90
8662;DHT22;29684;47.722;9.388;2023-12-28T10:28:37;2.50;99.90
8662;DHT22;29684;47.722;9.388;2023-12-28T10:31:23;2.70;99.90
8662;DHT22;29684;47.722;9.388;2023-12-28T10:34:10;2.80;99.90
8662;DHT22;29684;47.722;9.388;2023-12-28T10:36:56;2.90;99.90
8662;DHT22;29684;47.722;9.388;2023-12-28T10:39:44;2.80;99.90
8662;DHT22;29684;47.722;9.388;2023-12-28T10:42:40;2.60;99.90
8662;DHT22;29684;47.722;9.388;2023-12-28T10:45:26;2.60;99.90
8662;DHT22;29684;47.722;9.388;2023-12-28T10:48:13;2.60;99.90
8662;DHT22;29684;47.722;9.388;2023-12-28T10:50:57;2.50;99.90
8662;DHT22;29684;47.722;9.388;2023-12-28T10:53:54;2.60;99.90
8662;DHT22;29684;47.722;9.388;2023-12-28T10:56:47;3.70;99.90
8662;DHT22;29684;47.722;9.388;2023-12-28T11:02:21;2.80;99.90
8662;DHT22;29684;47.722;9.388;2023-12-28T11:05:09;2.80;99.90
8662;DHT22;29684;47.722;9.388;2023-12-28T11:07:55;3.10;99.90
8662;DHT22;29684;47.722;9.388;2023-12-28T11:10:42;3.30;99.90
8662;DHT22;29684;47.722;9.388;2023-12-28T11:13:29;3.50;99.90
8662;DHT22;29684;47.722;9.388;2023-12-28T11:16:24;3.60;99.90
8662;DHT22;29684;47.722;9.388;2023-12-28T11:19:10;3.80;99.90
8662;DHT22;29684;47.722;9.388;2023-12-28T11:21:55;4.10;99.90
8662;DHT22;29684;47.722;9.388;2023-12-28T11:24:43;4.10;99.90
8662;DHT22;29684;47.722;9.388;2023-12-28T11:27:42;4.20;99.90
8662;DHT22;29684;47.722;9.388;2023-12-28T11:30:27;4.30;99.90
8662;DHT22;29684;47.722;9.388;2023-12-28T11:33:14;4.40;99.90
8662;DHT22;29684;47.722;9.388;2023-12-28T11:35:58;4.60;99.90
8662;DHT22;29684;47.722;9.388;2023-12-28T11:38:43;4.60;99.90
8662;DHT22;29684;47.722;9.388;2023-12-28T11:41:27;4.70;99.90
8662;DHT22;29684;47.722;9.388;2023-12-28T11:44:12;4.70;99.90
8662;DHT22;29684;47.722;9.388;2023-12-28T11:46:56;4.80;99.90
8662;DHT22;29684;47.722;9.388;2023-12-28T11:49:41;4.80;99.90
8662;DHT22;29684;47.722;9.388;2023-12-28T11:52:30;4.90;99.90
8662;DHT22;29684;47.722;9.388;2023-12-28T11:55:21;5.00;99.90
8662;DHT22;29684;47.722;9.388;2023-12-28T11:58:06;5.20;99.90
8662;DHT22;29684;47.722;9.388;2023-12-28T12:00:53;5.30;99.90
8662;DHT22;29684;47.722;9.388;2023-12-28T12:03:41;5.30;99.90
8662;DHT22;29684;47.722;9.388;2023-12-28T12:06:26;5.30;99.90
8662;DHT22;29684;47.722;9.388;2023-12-28T12:09:11;5.40;99.90
8662;DHT22;29684;47.722;9.388;2023-12-28T12:11:55;5.40;99.90
8662;DHT22;29684;47.722;9.388;2023-12-28T12:14:39;5.50;99.90
8662;DHT22;29684;47.722;9.388;2023-12-28T12:17:24;5.50;99.90
8662;DHT22;29684;47.722;9.388;2023-12-28T12:20:09;5.50;99.90
8662;DHT22;29684;47.722;9.388;2023-12-28T12:22:53;5.60;99.90
8662;DHT22;29684;47.722;9.388;2023-12-28T12:25:38;5.80;99.90
8662;DHT22;29684;47.722;9.388;2023-12-28T12:28:22;5.80;99.90
8662;DHT22;29684;47.722;9.388;2023-12-28T12:31:06;5.80;99.90
8662;DHT22;29684;47.722;9.388;2023-12-28T12:33:50;5.50;99.90
8662;DHT22;29684;47.722;9.388;2023-12-28T12:36:35;5.50;99.90
8662;DHT22;29684;47.722;9.388;2023-12-28T12:39:19;5.60;99.90
8662;DHT22;29684;47.722;9.388;2023-12-28T12:42:04;5.50;99.90
8662;DHT22;29684;47.722;9.388;2023-12-28T12:44:48;5.60;99.90
8662;DHT22;29684;47.722;9.388;2023-12-28T12:47:35;5.80;99.90
8662;DHT22;29684;47.722;9.388;2023-12-28T12:50:20;5.60;99.90
8662;DHT22;29684;47.722;9.388;2023-12-28T12:53:05;5.50;99.90
8662;DHT22;29684;47.722;9.388;2023-12-28T12:55:54;5.50;99.90
8662;DHT22;29684;47.722;9.388;2023-12-28T12:58:38;5.60;99.90
8662;DHT22;29684;47.722;9.388;2023-12-28T13:01:24;5.70;99.90
8662;DHT22;29684;47.722;9.388;2023-12-28T13:04:08;5.80;99.90
8662;DHT22;29684;47.722;9.388;2023-12-28T13:06:52;5.80;99.90
8662;DHT22;29684;47.722;9.388;2023-12-28T13:09:37;6.00;99.90
8662;DHT22;29684;47.722;9.388;2023-12-28T13:12:22;5.80;99.90
8662;DHT22;29684;47.722;9.388;2023-12-28T13:15:07;5.90;99.90
8662;DHT22;29684;47.722;9.388;2023-12-28T13:17:55;5.80;99.90
8662;DHT22;29684;47.722;9.388;2023-12-28T13:20:39;5.80;99.90
8662;DHT22;29684;47.722;9.388;2023-12-28T13:23:24;5.80;99.90
8662;DHT22;29684;47.722;9.388;2023-12-28T13:26:08;5.80;99.90
8662;DHT22;29684;47.722;9.388;2023-12-28T13:28:52;5.80;99.90
8662;DHT22;29684;47.722;9.388;2023-12-28T13:31:36;5.80;99.90
8662;DHT22;29684;47.722;9.388;2023-12-28T13:34:21;5.80;99.90
8662;DHT22;29684;47.722;9.388;2023-12-28T13:37:06;5.80;99.90
8662;DHT22;29684;47.722;9.388;2023-12-28T13:39:51;5.80;99.90
8662;DHT22;29684;47.722;9.388;2023-12-28T13:42:35;5.80;99.90
8662;DHT22;29684;47.722;9.388;2023-12-28T13:45:19;5.80;99.90
8662;DHT22;29684;47.722;9.388;2023-12-28T13:48:04;5.80;99.90
8662;DHT22;29684;47.722;9.388;2023-12-28T13:50:51;5.70;99.90
8662;DHT22;29684;47.722;9.388;2023-12-28T13:53:36;5.70;99.90
8662;DHT22;29684;47.722;9.388;2023-12-28T13:56:24;5.60;99.90
8662;DHT22;29684;47.722;9.388;2023-12-28T13:59:08;5.50;99.90
8662;DHT22;29684;47.722;9.388;2023-12-28T14:01:53;5.50;99.90
8662;DHT22;29684;47.722;9.388;2023-12-28T14:04:37;5.60;99.90
8662;DHT22;29684;47.722;9.388;2023-12-28T14:07:25;5.50;99.90
8662;DHT22;29684;47.722;9.388;2023-12-28T14:10:09;5.50;99.90
8662;DHT22;29684;47.722;9.388;2023-12-28T14:12:53;5.70;99.90
8662;DHT22;29684;47.722;9.388;2023-12-28T14:15:37;5.60;99.90
8662;DHT22;29684;47.722;9.388;2023-12-28T14:18:22;5.60;99.90
8662;DHT22;29684;47.722;9.388;2023-12-28T14:21:07;5.60;99.90
8662;DHT22;29684;47.722;9.388;2023-12-28T14:23:53;5.70;99.90
8662;DHT22;29684;47.722;9.388;2023-12-28T14:26:42;5.60;99.90
8662;DHT22;29684;47.722;9.388;2023-12-28T14:29:27;5.50;99.90
8662;DHT22;29684;47.722;9.388;2023-12-28T14:32:12;5.40;99.90
8662;DHT22;29684;47.722;9.388;2023-12-28T14:34:56;5.40;99.90
8662;DHT22;29684;47.722;9.388;2023-12-28T14:37:41;5.30;99.90
8662;DHT22;29684;47.722;9.388;2023-12-28T14:40:25;5.30;99.90
8662;DHT22;29684;47.722;9.388;2023-12-28T14:43:09;5.30;99.90
8662;DHT22;29684;47.722;9.388;2023-12-28T14:45:53;5.20;99.90
8662;DHT22;29684;47.722;9.388;2023-12-28T14:48:40;5.00;99.90
8662;DHT22;29684;47.722;9.388;2023-12-28T14:51:26;5.10;99.90
8662;DHT22;29684;47.722;9.388;2023-12-28T14:54:12;5.10;99.90
8662;DHT22;29684;47.722;9.388;2023-12-28T14:56:56;5.10;99.90
8662;DHT22;29684;47.722;9.388;2023-12-28T14:59:40;5.30;99.90
8662;DHT22;29684;47.722;9.388;2023-12-28T15:02:24;5.20;99.90
8662;DHT22;29684;47.722;9.388;2023-12-28T15:05:11;5.00;99.90
8662;DHT22;29684;47.722;9.388;2023-12-28T15:07:56;5.10;99.90
8662;DHT22;29684;47.722;9.388;2023-12-28T15:10:40;5.20;99.90
8662;DHT22;29684;47.722;9.388;2023-12-28T15:13:26;5.10;99.90
8662;DHT22;29684;47.722;9.388;2023-12-28T15:16:10;5.10;99.90
8662;DHT22;29684;47.722;9.388;2023-12-28T15:18:55;5.10;99.90
8662;DHT22;29684;47.722;9.388;2023-12-28T15:21:40;5.10;99.90
8662;DHT22;29684;47.722;9.388;2023-12-28T15:24:27;5.20;99.90
8662;DHT22;29684;47.722;9.388;2023-12-28T15:27:12;5.10;99.90
8662;DHT22;29684;47.722;9.388;2023-12-28T15:29:56;5.10;99.90
8662;DHT22;29684;47.722;9.388;2023-12-28T15:32:41;5.10;99.90
8662;DHT22;29684;47.722;9.388;2023-12-28T15:35:25;5.10;99.90
8662;DHT22;29684;47.722;9.388;2023-12-28T15:38:09;5.10;99.90
8662;DHT22;29684;47.722;9.388;2023-12-28T15:40:53;5.00;99.90
8662;DHT22;29684;47.722;9.388;2023-12-28T15:43:37;5.10;99.90
8662;DHT22;29684;47.722;9.388;2023-12-28T15:46:21;5.00;99.90
8662;DHT22;29684;47.722;9.388;2023-12-28T15:49:06;5.00;99.90
8662;DHT22;29684;47.722;9.388;2023-12-28T15:51:50;4.90;99.90
8662;DHT22;29684;47.722;9.388;2023-12-28T15:54:34;4.80;99.90
8662;DHT22;29684;47.722;9.388;2023-12-28T15:57:18;4.80;99.90
8662;DHT22;29684;47.722;9.388;2023-12-28T16:00:05;4.80;99.90
8662;DHT22;29684;47.722;9.388;2023-12-28T16:02:50;4.70;99.90
8662;DHT22;29684;47.722;9.388;2023-12-28T16:05:34;4.70;99.90
8662;DHT22;29684;47.722;9.388;2023-12-28T16:08:18;4.80;99.90
8662;DHT22;29684;47.722;9.388;2023-12-28T16:11:03;4.90;99.90
8662;DHT22;29684;47.722;9.388;2023-12-28T16:13:49;4.90;99.90
8662;DHT22;29684;47.722;9.388;2023-12-28T16:16:34;4.90;99.90
8662;DHT22;29684;47.722;9.388;2023-12-28T16:19:19;4.90;99.90
8662;DHT22;29684;47.722;9.388;2023-12-28T16:22:04;4.80;99.90
8662;DHT22;29684;47.722;9.388;2023-12-28T16:24:49;4.70;99.90
8662;DHT22;29684;47.722;9.388;2023-12-28T16:27:33;4.70;99.90
8662;DHT22;29684;47.722;9.388;2023-12-28T16:30:17;4.60;99.90
8662;DHT22;29684;47.722;9.388;2023-12-28T16:33:02;4.70;99.90
8662;DHT22;29684;47.722;9.388;2023-12-28T16:35:46;4.70;99.90
8662;DHT22;29684;47.722;9.388;2023-12-28T16:38:30;4.70;99.90
8662;DHT22;29684;47.722;9.388;2023-12-28T16:41:14;4.70;99.90
8662;DHT22;29684;47.722;9.388;2023-12-28T16:43:58;4.80;99.90
8662;DHT22;29684;47.722;9.388;2023-12-28T16:46:44;4.70;99.90
8662;DHT22;29684;47.722;9.388;2023-12-28T16:49:31;4.80;99.90
8662;DHT22;29684;47.722;9.388;2023-12-28T16:52:18;4.70;99.90
8662;DHT22;29684;47.722;9.388;2023-12-28T16:55:03;4.70;99.90
8662;DHT22;29684;47.722;9.388;2023-12-28T16:57:47;4.80;99.90
8662;DHT22;29684;47.722;9.388;2023-12-28T17:00:31;4.80;99.90
8662;DHT22;29684;47.722;9.388;2023-12-28T17:03:16;4.80;99.90
8662;DHT22;29684;47.722;9.388;2023-12-28T17:06:03;4.80;99.90
8662;DHT22;29684;47.722;9.388;2023-12-28T17:08:48;4.70;99.90
8662;DHT22;29684;47.722;9.388;2023-12-28T17:11:33;4.80;99.90
8662;DHT22;29684;47.722;9.388;2023-12-28T17:14:18;5.00;99.90
8662;DHT22;29684;47.722;9.388;2023-12-28T17:17:02;4.90;99.90
8662;DHT22;29684;47.722;9.388;2023-12-28T17:19:47;6.50;99.90
8662;DHT22;29684;47.722;9.388;2023-12-28T17:22:33;4.80;99.90
8662;DHT22;29684;47.722;9.388;2023-12-28T17:25:32;4.80;99.90
8662;DHT22;29684;47.722;9.388;2023-12-28T17:28:24;4.70;99.90
8662;DHT22;29684;47.722;9.388;2023-12-28T17:31:10;4.70;99.90
8662;DHT22;29684;47.722;9.388;2023-12-28T17:33:57;4.80;99.90
8662;DHT22;29684;47.722;9.388;2023-12-28T17:36:42;4.80;99.90
8662;DHT22;29684;47.722;9.388;2023-12-28T17:39:27;4.80;99.90
8662;DHT22;29684;47.722;9.388;2023-12-28T17:42:13;4.80;99.90
8662;DHT22;29684;47.722;9.388;2023-12-28T17:44:59;4.80;99.90
8662;DHT22;29684;47.722;9.388;2023-12-28T17:48:04;4.90;99.90
8662;DHT22;29684;47.722;9.388;2023-12-28T17:50:50;4.90;99.90
8662;DHT22;29684;47.722;9.388;2023-12-28T17:53:35;5.00;99.90
8662;DHT22;29684;47.722;9.388;2023-12-28T17:56:20;5.00;99.90
8662;DHT22;29684;47.722;9.388;2023-12-28T17:59:04;5.10;99.90